createdAt,value
2022-12-05T00:00:24.297Z,18.38
2022-12-05T00:01:42.147Z,17.73
2022-12-05T00:02:48.451Z,17.27
2022-12-05T00:03:52.827Z,15.30
2022-12-05T00:04:55.115Z,17.13
2022-12-05T00:05:57.358Z,15.25
2022-12-05T00:06:59.522Z,16.40
2022-12-05T00:08:01.849Z,15.50
2022-12-05T00:09:05.931Z,17.15
2022-12-05T00:10:08.715Z,17.05
2022-12-05T00:11:16.438Z,19.02
2022-12-05T00:12:19.338Z,18.10
2022-12-05T00:13:21.619Z,18.27
2022-12-05T00:14:23.849Z,19.02
2022-12-05T00:15:26.106Z,15.70
2022-12-05T00:16:33.699Z,16.65
2022-12-05T00:17:35.975Z,16.25
2022-12-05T00:18:47.937Z,15.27
2022-12-05T00:19:55.189Z,16.45
2022-12-05T00:20:59.070Z,18.50
2022-12-05T00:22:01.299Z,18.92
2022-12-05T00:23:03.480Z,19.63
2022-12-05T00:24:07.607Z,20.30
2022-12-05T00:25:10.197Z,20.55
2022-12-05T00:26:12.773Z,17.88
2022-12-05T00:27:15.006Z,17.77
2022-12-05T00:28:17.310Z,17.55
2022-12-05T00:29:19.594Z,18.25
2022-12-05T00:30:21.806Z,18.92
2022-12-05T00:31:26.300Z,16.83
2022-12-05T00:32:29.605Z,19.25
2022-12-05T00:33:31.939Z,18.55
2022-12-05T00:34:34.109Z,17.33
2022-12-05T00:35:36.386Z,17.02
2022-12-05T00:36:38.826Z,16.85
2022-12-05T00:37:41.102Z,15.32
2022-12-05T00:38:44.002Z,17.27
2022-12-05T00:39:46.248Z,18.48
2022-12-05T00:40:48.393Z,17.80
2022-12-05T00:41:50.583Z,17.00
2022-12-05T00:42:52.772Z,16.52
2022-12-05T00:43:57.901Z,16.77
2022-12-05T00:45:00.131Z,16.70
2022-12-05T00:46:07.981Z,19.30
2022-12-05T00:47:10.358Z,17.42
2022-12-05T00:48:12.555Z,18.73
2022-12-05T00:49:14.832Z,18.73
2022-12-05T00:50:17.137Z,16.80
2022-12-05T00:51:23.303Z,18.00
2022-12-05T00:52:26.616Z,18.90
2022-12-05T00:53:28.978Z,17.80
2022-12-05T00:54:31.166Z,17.27
2022-12-05T00:55:37.280Z,18.08
2022-12-05T00:56:39.883Z,17.50
2022-12-05T00:57:42.045Z,17.63
2022-12-05T00:58:44.719Z,18.30
2022-12-05T00:59:46.943Z,18.42
2022-12-05T01:00:49.164Z,18.13
2022-12-05T01:01:51.930Z,18.65
2022-12-05T01:02:55.246Z,17.38
2022-12-05T01:03:59.451Z,15.35
2022-12-05T01:05:01.624Z,17.40
2022-12-05T01:06:06.091Z,16.52
2022-12-05T01:07:08.330Z,16.77
2022-12-05T01:08:10.534Z,16.85
2022-12-05T01:09:15.594Z,17.83
2022-12-05T01:10:17.841Z,17.23
2022-12-05T01:11:20.370Z,17.05
2022-12-05T01:12:22.571Z,18.00
2022-12-05T01:13:25.996Z,19.13
2022-12-05T01:14:28.439Z,17.02
2022-12-05T01:15:30.618Z,16.48
2022-12-05T01:16:35.612Z,17.80
2022-12-05T01:17:38.071Z,18.52
2022-12-05T01:18:40.392Z,17.58
2022-12-05T01:19:42.563Z,17.05
2022-12-05T01:20:45.693Z,16.67
2022-12-05T01:21:48.054Z,16.85
2022-12-05T01:22:50.260Z,17.27
2022-12-05T01:23:52.664Z,17.00
2022-12-05T01:24:54.855Z,15.60
2022-12-05T01:25:57.038Z,17.90
2022-12-05T01:26:59.266Z,18.10
2022-12-05T01:28:01.476Z,17.67
2022-12-05T01:29:04.471Z,15.32
2022-12-05T01:30:07.243Z,16.63
2022-12-05T01:31:17.974Z,15.70
2022-12-05T01:32:20.315Z,16.42
2022-12-05T01:33:22.614Z,15.38
2022-12-05T01:34:25.000Z,14.48
2022-12-05T01:35:27.230Z,15.63
2022-12-05T01:36:30.068Z,16.05
2022-12-05T01:37:32.297Z,14.50
2022-12-05T01:38:34.602Z,15.63
2022-12-05T01:39:36.784Z,17.08
2022-12-05T01:40:39.577Z,15.43
2022-12-05T01:41:45.469Z,15.70
2022-12-05T01:42:47.987Z,16.10
2022-12-05T01:44:00.849Z,15.77
2022-12-05T01:45:21.074Z,16.63
2022-12-05T01:46:23.807Z,16.35
2022-12-05T01:47:29.090Z,15.32
2022-12-05T01:48:35.880Z,16.13
2022-12-05T01:49:41.182Z,15.65
2022-12-05T01:50:44.050Z,15.10
2022-12-05T01:51:49.870Z,14.52
2022-12-05T01:52:52.092Z,16.17
2022-12-05T01:53:54.361Z,15.35
2022-12-05T01:55:02.609Z,16.30
2022-12-05T01:56:05.722Z,16.15
2022-12-05T01:57:11.493Z,16.15
2022-12-05T01:58:14.123Z,15.38
2022-12-05T01:59:19.215Z,15.50
2022-12-05T02:01:41.443Z,15.85
2022-12-05T02:02:52.616Z,16.25
2022-12-05T02:03:58.355Z,15.70
2022-12-05T02:05:09.015Z,16.33
2022-12-05T02:06:13.059Z,16.27
2022-12-05T02:07:15.355Z,16.17
2022-12-05T02:08:18.000Z,15.35
2022-12-05T02:09:20.899Z,15.77
2022-12-05T02:10:23.324Z,16.55
2022-12-05T02:11:27.976Z,15.07
2022-12-05T02:12:30.157Z,15.18
2022-12-05T02:13:38.477Z,15.20
2022-12-05T02:14:59.721Z,17.13
2022-12-05T02:16:31.349Z,16.25
2022-12-05T02:17:54.207Z,17.05
2022-12-05T02:19:16.614Z,17.10
2022-12-05T02:20:35.655Z,18.23
2022-12-05T02:22:07.417Z,17.50
2022-12-05T02:23:34.258Z,17.38
2022-12-05T02:25:05.233Z,18.33
2022-12-05T02:26:45.823Z,18.25
2022-12-05T02:27:53.686Z,18.52
2022-12-05T02:29:26.081Z,16.50
2022-12-05T02:30:54.320Z,19.55
2022-12-05T02:32:10.220Z,18.85
2022-12-05T02:33:27.548Z,19.30
2022-12-05T02:34:55.397Z,19.73
2022-12-05T02:36:07.214Z,19.63
2022-12-05T02:37:38.940Z,21.05
2022-12-05T02:38:41.102Z,19.23
2022-12-05T02:39:54.642Z,20.13
2022-12-05T02:41:24.422Z,21.70
2022-12-05T02:42:33.145Z,19.85
2022-12-05T02:43:48.241Z,20.50
2022-12-05T02:44:57.200Z,21.77
2022-12-05T02:46:06.654Z,20.50
2022-12-05T02:47:12.768Z,18.95
2022-12-05T02:48:17.710Z,20.27
2022-12-05T02:49:26.919Z,21.05
2022-12-05T02:50:36.466Z,19.10
2022-12-05T02:51:43.908Z,20.42
2022-12-05T02:52:49.269Z,19.42
2022-12-05T02:53:52.878Z,19.40
2022-12-05T02:54:56.230Z,21.13
2022-12-05T02:55:59.022Z,18.65
2022-12-05T02:57:01.692Z,20.35
2022-12-05T02:58:08.487Z,18.90
2022-12-05T02:59:10.830Z,17.92
2022-12-05T03:00:13.492Z,20.63
2022-12-05T03:01:16.363Z,20.60
2022-12-05T03:02:31.183Z,17.90
2022-12-05T03:03:34.476Z,20.13
2022-12-05T03:04:37.514Z,18.90
2022-12-05T03:05:51.533Z,19.92
2022-12-05T03:06:57.924Z,19.55
2022-12-05T03:08:02.040Z,20.00
2022-12-05T03:09:09.018Z,20.00
2022-12-05T03:10:14.575Z,20.52
2022-12-05T03:11:16.767Z,19.45
2022-12-05T03:12:26.008Z,18.67
2022-12-05T03:13:35.595Z,18.55
2022-12-05T03:15:14.997Z,19.48
2022-12-05T03:16:23.713Z,19.85
2022-12-05T03:17:31.749Z,18.63
2022-12-05T03:18:41.862Z,18.17
2022-12-05T03:20:11.953Z,18.67
2022-12-05T03:21:29.197Z,18.35
2022-12-05T03:22:46.642Z,18.63
2022-12-05T03:23:53.952Z,18.80
2022-12-05T03:24:56.217Z,17.70
2022-12-05T03:26:12.150Z,18.92
2022-12-05T03:27:25.616Z,19.15
2022-12-05T03:28:58.726Z,18.00
2022-12-05T03:30:08.730Z,19.52
2022-12-05T03:31:14.404Z,17.98
2022-12-05T03:32:35.046Z,18.77
2022-12-05T03:33:44.561Z,17.25
2022-12-05T03:34:49.561Z,19.45
2022-12-05T03:36:03.339Z,18.20
2022-12-05T03:37:12.615Z,18.40
2022-12-05T03:38:45.262Z,19.05
2022-12-05T03:39:54.998Z,15.93
2022-12-05T03:41:14.622Z,18.55
2022-12-05T03:42:27.476Z,17.98
2022-12-05T03:43:51.656Z,17.33
2022-12-05T03:45:01.497Z,18.33
2022-12-05T03:46:16.115Z,16.58
2022-12-05T03:48:09.534Z,15.57
2022-12-05T03:49:26.956Z,17.08
2022-12-05T03:50:37.434Z,15.85
2022-12-05T03:52:14.661Z,17.45
2022-12-05T03:53:26.005Z,16.92
2022-12-05T03:54:52.452Z,16.75
2022-12-05T03:56:08.392Z,18.23
2022-12-05T03:57:49.643Z,17.52
2022-12-05T03:59:02.477Z,17.02
2022-12-05T04:00:11.543Z,17.10
2022-12-05T04:01:16.622Z,17.92
2022-12-05T04:02:33.583Z,18.33
2022-12-05T04:03:42.621Z,17.50
2022-12-05T04:04:55.172Z,18.50
2022-12-05T04:07:05.695Z,17.45
2022-12-05T04:08:17.822Z,18.52
2022-12-05T04:09:34.999Z,16.95
2022-12-05T04:10:48.701Z,17.27
2022-12-05T04:11:57.534Z,18.10
2022-12-05T04:13:17.704Z,18.10
2022-12-05T04:14:53.615Z,18.63
2022-12-05T04:16:20.902Z,17.85
2022-12-05T04:17:34.827Z,18.70
2022-12-05T04:18:42.537Z,17.20
2022-12-05T04:20:11.714Z,17.75
2022-12-05T04:21:33.884Z,18.00
2022-12-05T04:22:37.586Z,18.10
2022-12-05T04:23:44.813Z,19.05
2022-12-05T04:25:10.172Z,19.08
2022-12-05T04:26:27.202Z,19.08
2022-12-05T04:27:39.199Z,17.25
2022-12-05T04:28:51.675Z,18.30
2022-12-05T04:30:04.835Z,17.38
2022-12-05T04:31:16.083Z,18.52
2022-12-05T04:32:20.989Z,18.35
2022-12-05T04:33:41.195Z,17.30
2022-12-05T04:34:50.381Z,17.27
2022-12-05T04:35:59.276Z,19.23
2022-12-05T04:37:06.954Z,19.92
2022-12-05T04:38:15.710Z,19.02
2022-12-05T04:39:27.190Z,17.50
2022-12-05T04:40:44.469Z,18.95
2022-12-05T04:42:09.151Z,19.08
2022-12-05T04:43:14.479Z,18.73
2022-12-05T04:44:23.988Z,18.80
2022-12-05T04:45:26.742Z,18.13
2022-12-05T04:46:28.969Z,18.55
2022-12-05T04:47:36.414Z,19.75
2022-12-05T04:48:42.715Z,18.90
2022-12-05T04:49:49.310Z,19.88
2022-12-05T04:50:57.730Z,19.17
2022-12-05T04:52:04.000Z,19.20
2022-12-05T04:53:08.635Z,18.40
2022-12-05T04:54:20.329Z,18.08
2022-12-05T04:55:29.491Z,17.35
2022-12-05T04:56:36.665Z,18.33
2022-12-05T04:58:10.924Z,18.33
2022-12-05T04:59:13.153Z,17.67
2022-12-05T05:00:15.698Z,17.23
2022-12-05T05:01:25.107Z,17.25
2022-12-05T05:02:37.919Z,17.52
2022-12-05T05:03:45.889Z,17.88
2022-12-05T05:04:51.400Z,19.48
2022-12-05T05:05:56.490Z,19.05
2022-12-05T05:06:58.698Z,18.90
2022-12-05T05:08:01.070Z,18.20
2022-12-05T05:09:03.924Z,19.20
2022-12-05T05:10:06.875Z,18.55
2022-12-05T05:11:19.877Z,16.85
2022-12-05T05:12:22.113Z,17.25
2022-12-05T05:13:24.642Z,18.00
2022-12-05T05:14:26.840Z,16.95
2022-12-05T05:15:29.107Z,17.92
2022-12-05T05:16:34.771Z,18.10
2022-12-05T05:17:37.087Z,18.08
2022-12-05T05:18:39.253Z,19.15
2022-12-05T05:19:41.476Z,17.45
2022-12-05T05:20:43.747Z,17.88
2022-12-05T05:21:45.954Z,17.67
2022-12-05T05:22:49.113Z,17.50
2022-12-05T05:23:51.962Z,18.27
2022-12-05T05:24:54.117Z,16.98
2022-12-05T05:25:56.829Z,17.45
2022-12-05T05:26:59.083Z,17.13
2022-12-05T05:28:01.496Z,16.98
2022-12-05T05:29:04.648Z,18.25
2022-12-05T05:30:07.476Z,18.42
2022-12-05T05:31:09.870Z,17.33
2022-12-05T05:32:12.113Z,17.40
2022-12-05T05:33:14.351Z,17.13
2022-12-05T05:34:16.654Z,17.35
2022-12-05T05:35:18.992Z,17.50
2022-12-05T05:36:23.433Z,15.75
2022-12-05T05:37:25.672Z,15.75
2022-12-05T05:38:27.841Z,17.55
2022-12-05T05:39:30.001Z,17.17
2022-12-05T05:40:35.859Z,18.50
2022-12-05T05:41:38.081Z,18.33
2022-12-05T05:42:44.878Z,17.35
2022-12-05T05:43:47.660Z,18.10
2022-12-05T05:44:50.117Z,17.45
2022-12-05T05:45:52.307Z,17.45
2022-12-05T05:46:54.774Z,17.83
2022-12-05T05:47:57.111Z,17.35
2022-12-05T05:48:59.678Z,18.90
2022-12-05T05:50:01.940Z,17.80
2022-12-05T05:51:06.583Z,17.30
2022-12-05T05:52:08.795Z,17.75
2022-12-05T05:53:10.920Z,17.33
2022-12-05T05:54:13.129Z,17.30
2022-12-05T05:55:15.355Z,17.35
2022-12-05T05:56:21.718Z,15.98
2022-12-05T05:57:24.457Z,16.02
2022-12-05T05:58:26.630Z,16.08
2022-12-05T05:59:28.908Z,28.35
2022-12-05T06:00:31.086Z,32.42
2022-12-05T06:01:33.339Z,29.88
2022-12-05T06:02:36.595Z,26.67
2022-12-05T06:03:39.736Z,27.58
2022-12-05T06:04:42.168Z,24.73
2022-12-05T06:05:48.710Z,25.13
2022-12-05T06:06:53.802Z,25.83
2022-12-05T06:07:56.165Z,24.02
2022-12-05T06:08:58.466Z,21.85
2022-12-05T06:10:01.361Z,21.63
2022-12-05T06:11:08.732Z,20.98
2022-12-05T06:12:10.944Z,22.65
2022-12-05T06:13:13.157Z,21.85
2022-12-05T06:14:15.386Z,21.00
2022-12-05T06:15:17.662Z,18.60
2022-12-05T06:16:21.231Z,18.27
2022-12-05T06:17:23.630Z,18.42
2022-12-05T06:18:25.866Z,19.02
2022-12-05T06:19:28.362Z,18.88
2022-12-05T06:20:30.672Z,16.95
2022-12-05T06:21:32.853Z,17.77
2022-12-05T06:22:35.116Z,17.90
2022-12-05T06:23:39.328Z,18.15
2022-12-05T06:24:41.515Z,18.77
2022-12-05T06:25:48.684Z,18.70
2022-12-05T06:26:50.973Z,18.60
2022-12-05T06:27:53.154Z,17.67
2022-12-05T06:28:55.372Z,17.65
2022-12-05T06:29:58.291Z,18.83
2022-12-05T06:31:06.304Z,18.58
2022-12-05T06:32:09.123Z,18.33
2022-12-05T06:33:12.281Z,19.98
2022-12-05T06:34:14.579Z,18.95
2022-12-05T06:35:16.761Z,19.35
2022-12-05T06:36:21.579Z,16.45
2022-12-05T06:37:23.798Z,16.60
2022-12-05T06:38:25.989Z,17.33
2022-12-05T06:39:28.271Z,19.38
2022-12-05T06:40:30.450Z,18.45
2022-12-05T06:41:33.590Z,18.30
2022-12-05T06:42:35.851Z,18.23
2022-12-05T06:43:38.029Z,19.63
2022-12-05T06:44:40.671Z,18.40
2022-12-05T06:45:42.943Z,17.33
2022-12-05T06:46:45.234Z,15.52
2022-12-05T06:47:47.644Z,17.92
2022-12-05T06:48:56.312Z,17.42
2022-12-05T06:49:58.805Z,16.42
2022-12-05T06:51:01.285Z,17.00
2022-12-05T06:52:03.559Z,19.38
2022-12-05T06:53:05.768Z,15.70
2022-12-05T06:54:07.931Z,17.02
2022-12-05T06:55:10.535Z,17.05
2022-12-05T06:56:19.553Z,17.40
2022-12-05T06:57:21.822Z,14.75
2022-12-05T06:58:24.658Z,16.98
2022-12-05T06:59:26.878Z,16.48
2022-12-05T07:00:47.367Z,15.90
2022-12-05T07:01:50.258Z,16.52
2022-12-05T07:02:53.103Z,16.13
2022-12-05T07:03:55.321Z,18.40
2022-12-05T07:04:57.623Z,15.23
2022-12-05T07:06:04.023Z,16.40
2022-12-05T07:07:06.561Z,21.77
2022-12-05T07:08:08.787Z,20.60
2022-12-05T07:09:11.513Z,19.95
2022-12-05T07:10:13.726Z,20.67
2022-12-05T07:11:15.949Z,21.60
2022-12-05T07:12:19.387Z,22.00
2022-12-05T07:13:22.223Z,19.35
2022-12-05T07:14:46.406Z,20.58
2022-12-05T07:15:48.376Z,17.27
2022-12-05T07:16:51.532Z,16.23
2022-12-05T07:17:53.929Z,15.32
2022-12-05T07:18:56.463Z,16.98
2022-12-05T07:19:59.103Z,15.65
2022-12-05T07:21:14.361Z,16.45
2022-12-05T07:22:18.222Z,17.00
2022-12-05T07:23:20.469Z,16.77
2022-12-05T07:24:22.707Z,15.23
2022-12-05T07:25:24.978Z,17.38
2022-12-05T07:26:27.360Z,19.33
2022-12-05T07:27:29.652Z,16.08
2022-12-05T07:28:32.675Z,17.80
2022-12-05T07:29:35.048Z,17.52
2022-12-05T07:30:37.366Z,21.05
2022-12-05T07:31:39.679Z,18.45
2022-12-05T07:32:41.929Z,19.20
2022-12-05T07:33:44.691Z,18.92
2022-12-05T07:34:49.739Z,17.65
2022-12-05T07:36:04.573Z,18.17
2022-12-05T07:37:06.828Z,19.08
2022-12-05T07:38:09.148Z,18.92
2022-12-05T07:39:11.341Z,18.77
2022-12-05T07:40:14.059Z,20.63
2022-12-05T07:41:24.885Z,19.58
2022-12-05T07:42:27.093Z,18.60
2022-12-05T07:43:29.313Z,18.65
2022-12-05T07:44:31.666Z,19.92
2022-12-05T07:45:35.709Z,21.15
2022-12-05T07:46:38.933Z,18.15
2022-12-05T07:47:41.338Z,19.02
2022-12-05T07:48:43.596Z,20.27
2022-12-05T07:49:45.769Z,19.60
2022-12-05T07:50:47.972Z,18.20
2022-12-05T07:51:50.236Z,17.98
2022-12-05T07:52:52.917Z,18.98
2022-12-05T07:53:55.264Z,19.38
2022-12-05T07:54:58.569Z,17.75
2022-12-05T07:56:02.768Z,19.13
2022-12-05T07:57:04.980Z,19.10
2022-12-05T07:58:07.704Z,19.35
2022-12-05T07:59:09.990Z,17.98
2022-12-05T08:00:12.887Z,19.92
2022-12-05T08:01:18.656Z,24.10
2022-12-05T08:02:21.121Z,21.50
2022-12-05T08:03:23.496Z,21.08
2022-12-05T08:04:25.889Z,18.42
2022-12-05T08:05:28.243Z,25.67
2022-12-05T08:06:31.383Z,22.23
2022-12-05T08:07:33.821Z,19.10
2022-12-05T08:08:36.586Z,19.55
2022-12-05T08:09:38.860Z,18.35
2022-12-05T08:10:41.129Z,20.25
2022-12-05T08:11:48.175Z,19.45
2022-12-05T08:12:53.431Z,18.50
2022-12-05T08:13:56.494Z,18.60
2022-12-05T08:14:58.727Z,18.35
2022-12-05T08:16:05.786Z,18.65
2022-12-05T08:17:08.131Z,18.80
2022-12-05T08:18:10.501Z,19.08
2022-12-05T08:19:13.474Z,20.20
2022-12-05T08:20:15.842Z,20.63
2022-12-05T08:21:19.712Z,19.15
2022-12-05T08:22:22.012Z,19.55
2022-12-05T08:23:24.226Z,20.60
2022-12-05T08:24:26.464Z,19.13
2022-12-05T08:25:28.866Z,21.90
2022-12-05T08:26:32.238Z,19.63
2022-12-05T08:27:34.514Z,18.80
2022-12-05T08:28:37.721Z,20.08
2022-12-05T08:29:39.977Z,19.25
2022-12-05T08:30:42.168Z,19.42
2022-12-05T08:31:47.407Z,18.60
2022-12-05T08:32:49.805Z,19.15
2022-12-05T08:33:57.295Z,19.13
2022-12-05T08:35:01.577Z,18.52
2022-12-05T08:36:06.264Z,16.73
2022-12-05T08:37:08.499Z,18.40
2022-12-05T08:38:10.898Z,19.10
2022-12-05T08:39:15.995Z,17.92
2022-12-05T08:40:18.635Z,16.83
2022-12-05T08:41:20.873Z,18.58
2022-12-05T08:42:23.076Z,21.73
2022-12-05T08:43:25.296Z,19.45
2022-12-05T08:44:27.509Z,19.58
2022-12-05T08:45:29.827Z,20.13
2022-12-05T08:46:34.291Z,20.05
2022-12-05T08:47:36.684Z,19.80
2022-12-05T08:48:39.325Z,19.10
2022-12-05T08:49:41.510Z,18.70
2022-12-05T08:50:43.759Z,18.33
2022-12-05T08:51:46.233Z,19.40
2022-12-05T08:52:48.479Z,15.60
2022-12-05T08:53:50.802Z,16.70
2022-12-05T08:54:52.982Z,18.80
2022-12-05T08:55:55.188Z,18.92
2022-12-05T08:56:57.520Z,18.30
2022-12-05T08:57:59.732Z,19.63
2022-12-05T08:59:06.156Z,18.25
2022-12-05T09:00:08.974Z,17.90
2022-12-05T09:01:17.141Z,16.92
2022-12-05T09:02:19.479Z,17.67
2022-12-05T09:03:21.744Z,16.48
2022-12-05T09:04:23.954Z,16.73
2022-12-05T09:05:28.637Z,17.08
2022-12-05T09:06:32.396Z,18.45
2022-12-05T09:07:34.643Z,16.52
2022-12-05T09:08:37.880Z,16.60
2022-12-05T09:09:40.077Z,16.40
2022-12-05T09:10:42.447Z,16.48
2022-12-05T09:11:50.679Z,16.45
2022-12-05T09:12:52.864Z,16.90
2022-12-05T09:13:57.578Z,17.20
2022-12-05T09:15:00.200Z,16.98
2022-12-05T09:16:07.974Z,17.02
2022-12-05T09:17:10.183Z,16.65
2022-12-05T09:18:12.650Z,15.73
2022-12-05T09:19:24.806Z,15.55
2022-12-05T09:20:27.028Z,16.02
2022-12-05T09:21:30.999Z,15.45
2022-12-05T09:22:33.670Z,15.55
2022-12-05T09:23:36.277Z,15.65
2022-12-05T09:24:38.478Z,15.98
2022-12-05T09:25:40.723Z,15.35
2022-12-05T09:26:43.024Z,16.75
2022-12-05T09:27:45.206Z,16.17
2022-12-05T09:28:48.244Z,15.07
2022-12-05T09:29:50.364Z,16.75
2022-12-05T09:31:01.707Z,16.38
2022-12-05T09:32:04.201Z,17.13
2022-12-05T09:33:06.630Z,17.50
2022-12-05T09:34:09.331Z,16.75
2022-12-05T09:35:11.690Z,16.08
2022-12-05T09:36:39.802Z,16.17
2022-12-05T09:37:42.088Z,18.08
2022-12-05T09:38:44.927Z,17.92
2022-12-05T09:39:47.227Z,18.05
2022-12-05T09:41:41.594Z,18.42
2022-12-05T09:44:02.962Z,17.48
2022-12-05T09:45:10.883Z,17.27
2022-12-05T09:46:39.573Z,17.27
2022-12-05T09:48:04.928Z,16.98
2022-12-05T09:49:11.004Z,16.80
2022-12-05T09:50:28.030Z,17.65
2022-12-05T09:51:31.090Z,17.58
2022-12-05T09:52:38.596Z,18.02
2022-12-05T09:53:43.449Z,17.77
2022-12-05T09:54:45.988Z,16.77
2022-12-05T09:55:57.219Z,18.95
2022-12-05T09:56:59.975Z,17.23
2022-12-05T09:58:05.416Z,16.88
2022-12-05T09:59:13.704Z,17.00
2022-12-05T10:00:17.002Z,17.42
2022-12-05T10:01:46.056Z,17.17
2022-12-05T10:03:06.856Z,18.13
2022-12-05T10:05:01.810Z,17.45
2022-12-05T10:06:24.137Z,17.25
2022-12-05T10:07:41.022Z,17.00
2022-12-05T10:09:01.467Z,18.33
2022-12-05T10:10:24.678Z,17.65
2022-12-05T10:11:44.443Z,16.88
2022-12-05T10:13:13.275Z,18.50
2022-12-05T10:14:54.355Z,17.70
2022-12-05T10:16:03.098Z,17.38
2022-12-05T10:17:23.778Z,18.48
2022-12-05T10:18:51.017Z,18.27
2022-12-05T10:19:58.047Z,18.40
2022-12-05T10:21:09.027Z,18.30
2022-12-05T10:22:20.416Z,18.77
2022-12-05T10:23:55.553Z,20.20
2022-12-05T10:30:58.664Z,17.17
2022-12-05T10:32:13.306Z,19.52
2022-12-05T10:33:21.287Z,18.00
2022-12-05T10:34:31.708Z,18.77
2022-12-05T10:35:39.616Z,18.42
2022-12-05T10:36:54.975Z,17.63
2022-12-05T10:37:59.849Z,17.88
2022-12-05T10:39:06.929Z,16.33
2022-12-05T10:40:13.284Z,17.55
2022-12-05T10:41:15.492Z,18.33
2022-12-05T10:42:28.045Z,18.80
2022-12-05T10:43:32.559Z,18.05
2022-12-05T10:44:35.022Z,18.48
2022-12-05T10:45:43.107Z,18.77
2022-12-05T10:46:45.810Z,19.05
2022-12-05T10:47:49.508Z,18.73
2022-12-05T10:48:51.774Z,19.38
2022-12-05T10:49:58.111Z,18.75
2022-12-05T10:51:00.881Z,18.70
2022-12-05T10:52:03.927Z,17.83
2022-12-05T10:53:07.034Z,18.55
2022-12-05T10:54:20.752Z,17.52
2022-12-05T10:55:23.357Z,19.63
2022-12-05T10:56:45.427Z,19.02
2022-12-05T10:58:10.357Z,18.50
2022-12-05T10:59:21.738Z,17.20
2022-12-05T11:00:30.271Z,17.90
2022-12-05T11:01:36.924Z,18.80
2022-12-05T11:02:40.671Z,18.58
2022-12-05T11:03:43.733Z,16.48
2022-12-05T11:04:46.139Z,16.60
2022-12-05T11:05:50.734Z,17.65
2022-12-05T11:06:59.544Z,16.38
2022-12-05T11:08:01.820Z,18.13
2022-12-05T11:09:16.800Z,17.42
2022-12-05T11:10:37.611Z,17.45
2022-12-05T11:11:40.169Z,15.10
2022-12-05T11:12:42.399Z,14.52
2022-12-05T11:13:59.430Z,15.68
2022-12-05T11:15:10.720Z,16.70
2022-12-05T11:16:24.652Z,16.25
2022-12-05T11:17:31.647Z,16.70
2022-12-05T11:18:35.035Z,17.23
2022-12-05T11:19:38.146Z,16.92
2022-12-05T11:20:41.169Z,17.70
2022-12-05T11:21:43.798Z,19.00
2022-12-05T11:23:23.067Z,18.90
2022-12-05T11:24:29.409Z,16.15
2022-12-05T11:25:34.826Z,14.93
2022-12-05T11:26:37.743Z,17.38
2022-12-05T11:27:40.007Z,17.30
2022-12-05T11:28:42.196Z,17.40
2022-12-05T11:29:53.621Z,16.98
2022-12-05T11:30:57.534Z,16.77
2022-12-05T11:32:00.259Z,17.83
2022-12-05T11:33:19.238Z,16.42
2022-12-05T11:34:27.944Z,16.48
2022-12-05T11:35:30.175Z,17.98
2022-12-05T11:36:44.372Z,17.42
2022-12-05T11:37:54.495Z,17.83
2022-12-05T11:38:58.346Z,17.83
2022-12-05T11:40:02.361Z,17.88
2022-12-05T11:41:17.151Z,17.77
2022-12-05T11:42:23.635Z,17.33
2022-12-05T11:43:39.667Z,15.95
2022-12-05T11:44:57.448Z,16.88
2022-12-05T11:46:15.260Z,16.00
2022-12-05T11:47:20.163Z,16.98
2022-12-05T11:48:27.955Z,16.40
2022-12-05T11:49:38.762Z,15.85
2022-12-05T11:50:52.755Z,15.48
2022-12-05T11:52:23.211Z,16.40
2022-12-05T11:53:56.121Z,16.20
2022-12-05T11:55:22.180Z,16.77
2022-12-05T11:56:27.654Z,15.82
2022-12-05T11:57:35.633Z,15.43
2022-12-05T11:58:53.000Z,16.33
2022-12-05T12:00:15.200Z,15.32
2022-12-05T12:01:56.092Z,14.45
2022-12-05T12:03:16.660Z,15.35
2022-12-05T12:04:41.710Z,15.82
2022-12-05T12:06:04.883Z,15.68
2022-12-05T12:07:25.027Z,14.30
2022-12-05T12:08:44.104Z,14.40
2022-12-05T12:10:18.409Z,13.30
2022-12-05T12:11:46.790Z,15.15
2022-12-05T12:13:24.229Z,15.80
2022-12-05T12:14:50.941Z,14.45
2022-12-05T12:16:02.729Z,15.80
2022-12-05T12:17:34.622Z,14.45
2022-12-05T12:18:48.602Z,13.75
2022-12-05T12:20:34.984Z,15.23
2022-12-05T12:22:00.529Z,14.57
2022-12-05T12:23:27.632Z,13.07
2022-12-05T12:24:47.850Z,13.80
2022-12-05T12:26:20.359Z,13.75
2022-12-05T12:27:56.759Z,13.33
2022-12-05T12:29:17.158Z,13.10
2022-12-05T12:30:28.560Z,13.38
2022-12-05T12:31:39.593Z,14.50
2022-12-05T12:33:03.352Z,14.43
2022-12-05T12:34:05.489Z,13.68
2022-12-05T12:35:30.498Z,12.98
2022-12-05T12:36:42.942Z,13.15
2022-12-05T12:39:10.325Z,13.68
2022-12-05T12:40:18.150Z,13.32
2022-12-05T12:41:46.291Z,14.07
2022-12-05T12:43:52.250Z,13.73
2022-12-05T12:45:23.478Z,13.98
2022-12-05T12:46:48.648Z,13.48
2022-12-05T12:47:59.232Z,12.95
2022-12-05T12:49:24.548Z,13.70
2022-12-05T12:50:38.850Z,13.48
2022-12-05T12:51:54.627Z,13.02
2022-12-05T12:53:08.638Z,14.05
2022-12-05T12:54:34.179Z,13.68
2022-12-05T12:56:04.990Z,14.13
2022-12-05T12:57:24.056Z,14.05
2022-12-05T12:58:35.312Z,14.02
2022-12-05T13:00:24.318Z,12.15
2022-12-05T13:01:48.054Z,12.77
2022-12-05T13:03:00.356Z,13.40
2022-12-05T13:04:28.471Z,12.30
2022-12-05T13:05:41.559Z,13.57
2022-12-05T13:06:56.061Z,13.48
2022-12-05T13:08:14.314Z,12.55
2022-12-05T13:09:26.957Z,13.40
2022-12-05T13:10:37.854Z,13.70
2022-12-05T13:11:44.390Z,13.20
2022-12-05T13:12:47.361Z,13.50
2022-12-05T13:13:57.096Z,12.70
2022-12-05T13:15:06.205Z,13.55
2022-12-05T13:16:12.891Z,22.30
2022-12-05T13:17:18.966Z,17.13
2022-12-05T13:18:25.331Z,16.45
2022-12-05T13:19:42.298Z,17.23
2022-12-05T13:20:49.217Z,14.00
2022-12-05T13:21:53.435Z,14.60
2022-12-05T13:22:56.152Z,15.93
2022-12-05T13:24:03.325Z,15.15
2022-12-05T13:25:05.950Z,13.65
2022-12-05T13:26:11.121Z,14.82
2022-12-05T13:27:17.572Z,15.23
2022-12-05T13:28:30.513Z,14.15
2022-12-05T13:30:01.332Z,14.35
2022-12-05T13:31:05.730Z,14.45
2022-12-05T13:32:25.425Z,15.52
2022-12-05T13:33:44.208Z,14.40
2022-12-05T13:34:48.846Z,14.40
2022-12-05T13:36:21.280Z,14.32
2022-12-05T13:37:46.599Z,14.00
2022-12-05T13:39:07.676Z,13.70
2022-12-05T13:40:52.142Z,14.02
2022-12-05T13:42:15.401Z,14.48
2022-12-05T13:43:21.000Z,13.15
2022-12-05T13:44:38.467Z,15.55
2022-12-05T13:45:51.750Z,15.40
2022-12-05T13:46:54.380Z,15.60
2022-12-05T13:47:59.321Z,14.98
2022-12-05T13:49:08.232Z,15.40
2022-12-05T13:50:23.578Z,14.38
2022-12-05T13:51:36.922Z,14.25
2022-12-05T13:52:47.757Z,14.57
2022-12-05T13:54:22.769Z,14.63
2022-12-05T13:55:33.884Z,16.05
2022-12-05T13:56:56.024Z,14.35
2022-12-05T13:58:00.562Z,13.98
2022-12-05T13:59:03.847Z,14.93
2022-12-05T14:00:09.090Z,15.27
2022-12-05T14:01:26.539Z,15.45
2022-12-05T14:02:45.210Z,16.08
2022-12-05T14:03:47.421Z,14.73
2022-12-05T14:04:53.775Z,15.80
2022-12-05T14:05:56.420Z,14.85
2022-12-05T14:06:58.968Z,16.52
2022-12-05T14:08:37.620Z,14.65
2022-12-05T14:09:53.862Z,13.85
2022-12-05T14:10:56.046Z,15.18
2022-12-05T14:12:10.135Z,14.68
2022-12-05T14:13:15.337Z,14.88
2022-12-05T14:15:12.891Z,18.85
2022-12-05T14:16:24.099Z,15.90
2022-12-05T14:17:29.987Z,13.85
2022-12-05T14:18:52.604Z,13.60
2022-12-05T14:20:26.413Z,14.02
2022-12-05T14:21:54.394Z,12.82
2022-12-05T14:23:26.849Z,11.65
2022-12-05T14:24:42.690Z,12.98
2022-12-05T14:26:05.593Z,13.15
2022-12-05T14:27:19.509Z,13.68
2022-12-05T14:28:47.555Z,12.00
2022-12-05T14:30:17.322Z,13.95
2022-12-05T14:31:42.462Z,12.35
2022-12-05T14:32:44.701Z,12.30
2022-12-05T14:34:18.199Z,12.15
2022-12-05T14:35:45.965Z,12.30
2022-12-05T14:36:59.390Z,11.60
2022-12-05T14:38:05.252Z,10.75
2022-12-05T14:39:22.139Z,11.23
2022-12-05T14:40:30.396Z,11.05
2022-12-05T14:41:35.406Z,12.10
2022-12-05T14:42:43.700Z,10.88
2022-12-05T14:43:53.501Z,10.93
2022-12-05T14:45:00.689Z,11.35
2022-12-05T14:46:02.944Z,10.90
2022-12-05T14:47:07.128Z,11.50
2022-12-05T14:48:15.307Z,11.60
2022-12-05T14:49:54.839Z,11.10
2022-12-05T14:50:58.077Z,11.50
2022-12-05T14:52:00.487Z,10.95
2022-12-05T14:53:20.771Z,12.13
2022-12-05T14:54:24.777Z,11.30
2022-12-05T14:55:27.334Z,12.65
2022-12-05T14:56:30.368Z,11.98
2022-12-05T14:57:35.994Z,12.30
2022-12-05T14:58:48.637Z,12.43
2022-12-05T14:59:54.177Z,12.68